sensor_id;sensor_type;location;lat;lon;timestamp;pressure;altitude;pressure_sealevel;temperature;humidity
40570;BME280;26270;34.428;-119.710;2023-02-10T00:00:07;101761.48;;;26.39;19.04
40570;BME280;26270;34.428;-119.710;2023-02-10T00:02:35;101762.14;;;26.08;18.47
40570;BME280;26270;34.428;-119.710;2023-02-10T00:05:03;101759.34;;;26.16;18.35
40570;BME280;26270;34.428;-119.710;2023-02-10T00:07:31;101761.77;;;26.27;18.12
40570;BME280;26270;34.428;-119.710;2023-02-10T00:10:00;101763.27;;;26.13;18.54
40570;BME280;26270;34.428;-119.710;2023-02-10T00:12:28;101764.61;;;26.04;18.10
40570;BME280;26270;34.428;-119.710;2023-02-10T00:14:56;101765.92;;;26.02;18.68
40570;BME280;26270;34.428;-119.710;2023-02-10T00:17:24;101769.06;;;25.87;18.97
40570;BME280;26270;34.428;-119.710;2023-02-10T00:19:52;101766.34;;;25.82;18.66
40570;BME280;26270;34.428;-119.710;2023-02-10T00:22:20;101768.97;;;25.81;19.04
40570;BME280;26270;34.428;-119.710;2023-02-10T00:24:49;101770.12;;;25.67;19.17
40570;BME280;26270;34.428;-119.710;2023-02-10T00:27:17;101768.13;;;25.91;19.24
40570;BME280;26270;34.428;-119.710;2023-02-10T00:29:46;101770.49;;;26.00;18.51
40570;BME280;26270;34.428;-119.710;2023-02-10T00:32:13;101771.44;;;26.04;19.13
40570;BME280;26270;34.428;-119.710;2023-02-10T00:34:42;101769.86;;;26.22;18.95
40570;BME280;26270;34.428;-119.710;2023-02-10T00:37:10;101768.89;;;26.06;19.46
40570;BME280;26270;34.428;-119.710;2023-02-10T00:39:39;101766.96;;;26.06;19.43
40570;BME280;26270;34.428;-119.710;2023-02-10T00:42:07;101766.20;;;26.02;19.54
40570;BME280;26270;34.428;-119.710;2023-02-10T00:44:35;101765.90;;;25.92;19.37
40570;BME280;26270;34.428;-119.710;2023-02-10T00:47:03;101772.50;;;25.84;20.54
40570;BME280;26270;34.428;-119.710;2023-02-10T00:49:31;101774.10;;;25.54;20.98
40570;BME280;26270;34.428;-119.710;2023-02-10T00:52:00;101771.62;;;25.43;20.91
40570;BME280;26270;34.428;-119.710;2023-02-10T00:54:28;101772.52;;;25.25;21.51
40570;BME280;26270;34.428;-119.710;2023-02-10T00:56:56;101769.13;;;25.20;20.20
40570;BME280;26270;34.428;-119.710;2023-02-10T00:59:24;101771.30;;;25.02;20.55
40570;BME280;26270;34.428;-119.710;2023-02-10T01:01:53;101769.45;;;24.83;21.82
40570;BME280;26270;34.428;-119.710;2023-02-10T01:04:21;101767.45;;;24.54;20.97
40570;BME280;26270;34.428;-119.710;2023-02-10T01:06:50;101770.86;;;24.49;20.96
40570;BME280;26270;34.428;-119.710;2023-02-10T01:09:18;101773.00;;;24.48;20.62
40570;BME280;26270;34.428;-119.710;2023-02-10T01:11:46;101770.43;;;24.33;20.31
40570;BME280;26270;34.428;-119.710;2023-02-10T01:14:14;101772.84;;;24.10;20.71
40570;BME280;26270;34.428;-119.710;2023-02-10T01:16:43;101770.28;;;24.11;21.33
40570;BME280;26270;34.428;-119.710;2023-02-10T01:19:12;101772.66;;;23.90;20.80
40570;BME280;26270;34.428;-119.710;2023-02-10T01:21:40;101772.97;;;23.92;20.62
40570;BME280;26270;34.428;-119.710;2023-02-10T01:24:09;101775.70;;;23.90;20.40
40570;BME280;26270;34.428;-119.710;2023-02-10T01:26:38;101778.05;;;23.91;20.65
40570;BME280;26270;34.428;-119.710;2023-02-10T01:29:06;101779.20;;;23.80;20.84
40570;BME280;26270;34.428;-119.710;2023-02-10T01:31:34;101784.34;;;23.73;21.13
40570;BME280;26270;34.428;-119.710;2023-02-10T01:34:02;101785.72;;;23.42;21.50
40570;BME280;26270;34.428;-119.710;2023-02-10T01:36:31;101788.41;;;23.22;21.98
40570;BME280;26270;34.428;-119.710;2023-02-10T01:38:59;101789.41;;;23.01;21.77
40570;BME280;26270;34.428;-119.710;2023-02-10T01:41:27;101785.58;;;22.87;22.38
40570;BME280;26270;34.428;-119.710;2023-02-10T01:43:59;101787.63;;;22.71;23.39
40570;BME280;26270;34.428;-119.710;2023-02-10T01:46:29;101788.02;;;22.58;23.76
40570;BME280;26270;34.428;-119.710;2023-02-10T01:49:00;101789.35;;;22.08;24.22
40570;BME280;26270;34.428;-119.710;2023-02-10T01:51:35;101789.88;;;22.15;25.09
40570;BME280;26270;34.428;-119.710;2023-02-10T01:54:05;101786.19;;;22.04;24.72
40570;BME280;26270;34.428;-119.710;2023-02-10T01:56:36;101787.16;;;21.93;25.26
40570;BME280;26270;34.428;-119.710;2023-02-10T01:59:04;101795.26;;;21.81;25.46
40570;BME280;26270;34.428;-119.710;2023-02-10T02:01:33;101790.66;;;21.69;26.24
40570;BME280;26270;34.428;-119.710;2023-02-10T02:04:02;101798.40;;;21.57;26.92
40570;BME280;26270;34.428;-119.710;2023-02-10T02:06:31;101799.03;;;21.25;26.66
40570;BME280;26270;34.428;-119.710;2023-02-10T02:08:59;101800.73;;;21.43;27.38
40570;BME280;26270;34.428;-119.710;2023-02-10T02:11:31;101799.55;;;21.33;28.05
40570;BME280;26270;34.428;-119.710;2023-02-10T02:14:15;101800.76;;;21.44;28.25
40570;BME280;26270;34.428;-119.710;2023-02-10T02:16:57;101803.64;;;21.15;28.44
40570;BME280;26270;34.428;-119.710;2023-02-10T02:20:15;101805.61;;;21.19;28.68
40570;BME280;26270;34.428;-119.710;2023-02-10T02:23:08;101813.17;;;21.14;28.73
40570;BME280;26270;34.428;-119.710;2023-02-10T02:25:52;101813.08;;;21.06;28.99
40570;BME280;26270;34.428;-119.710;2023-02-10T02:28:34;101812.39;;;21.06;29.32
40570;BME280;26270;34.428;-119.710;2023-02-10T02:31:38;101811.44;;;20.88;29.65
40570;BME280;26270;34.428;-119.710;2023-02-10T02:34:14;101807.57;;;20.85;30.19
40570;BME280;26270;34.428;-119.710;2023-02-10T02:36:49;101806.09;;;20.94;29.87
40570;BME280;26270;34.428;-119.710;2023-02-10T02:39:17;101811.52;;;20.71;30.45
40570;BME280;26270;34.428;-119.710;2023-02-10T02:41:45;101818.65;;;20.64;31.27
40570;BME280;26270;34.428;-119.710;2023-02-10T02:44:14;101831.06;;;20.22;32.25
40570;BME280;26270;34.428;-119.710;2023-02-10T02:46:55;101832.06;;;20.19;31.68
40570;BME280;26270;34.428;-119.710;2023-02-10T02:49:32;101831.18;;;20.17;31.81
40570;BME280;26270;34.428;-119.710;2023-02-10T02:52:07;101833.22;;;20.01;32.17
40570;BME280;26270;34.428;-119.710;2023-02-10T02:54:44;101832.47;;;19.96;32.43
40570;BME280;26270;34.428;-119.710;2023-02-10T02:57:22;101841.25;;;20.01;32.65
40570;BME280;26270;34.428;-119.710;2023-02-10T02:59:59;101839.03;;;19.77;32.48
40570;BME280;26270;34.428;-119.710;2023-02-10T03:02:29;101837.00;;;19.86;32.90
40570;BME280;26270;34.428;-119.710;2023-02-10T03:04:58;101835.28;;;19.87;33.10
40570;BME280;26270;34.428;-119.710;2023-02-10T03:07:26;101839.27;;;19.57;33.83
40570;BME280;26270;34.428;-119.710;2023-02-10T03:09:54;101835.97;;;19.78;33.82
40570;BME280;26270;34.428;-119.710;2023-02-10T03:12:23;101834.78;;;19.60;33.53
40570;BME280;26270;34.428;-119.710;2023-02-10T03:14:51;101831.98;;;19.49;33.48
40570;BME280;26270;34.428;-119.710;2023-02-10T03:17:19;101838.98;;;19.54;33.85
40570;BME280;26270;34.428;-119.710;2023-02-10T03:19:47;101836.77;;;19.58;33.73
40570;BME280;26270;34.428;-119.710;2023-02-10T03:22:15;101841.89;;;19.60;34.94
40570;BME280;26270;34.428;-119.710;2023-02-10T03:24:43;101838.14;;;19.51;35.10
40570;BME280;26270;34.428;-119.710;2023-02-10T03:27:11;101837.10;;;19.21;35.21
40570;BME280;26270;34.428;-119.710;2023-02-10T03:29:39;101838.09;;;19.15;37.12
40570;BME280;26270;34.428;-119.710;2023-02-10T03:32:08;101839.07;;;19.29;35.33
40570;BME280;26270;34.428;-119.710;2023-02-10T03:34:37;101833.38;;;19.13;35.43
40570;BME280;26270;34.428;-119.710;2023-02-10T03:37:05;101835.76;;;19.27;35.81
40570;BME280;26270;34.428;-119.710;2023-02-10T03:39:33;101834.36;;;19.09;35.78
40570;BME280;26270;34.428;-119.710;2023-02-10T03:42:01;101837.91;;;19.02;35.53
40570;BME280;26270;34.428;-119.710;2023-02-10T03:44:29;101838.57;;;19.03;35.58
40570;BME280;26270;34.428;-119.710;2023-02-10T03:46:57;101841.74;;;19.19;35.89
40570;BME280;26270;34.428;-119.710;2023-02-10T03:49:26;101845.25;;;18.93;37.15
40570;BME280;26270;34.428;-119.710;2023-02-10T03:51:54;101845.96;;;19.01;37.70
40570;BME280;26270;34.428;-119.710;2023-02-10T03:54:22;101846.79;;;18.75;36.63
40570;BME280;26270;34.428;-119.710;2023-02-10T03:56:51;101848.38;;;18.71;36.72
40570;BME280;26270;34.428;-119.710;2023-02-10T03:59:19;101851.87;;;18.68;37.28
40570;BME280;26270;34.428;-119.710;2023-02-10T04:01:47;101854.48;;;18.55;37.16
40570;BME280;26270;34.428;-119.710;2023-02-10T04:04:15;101859.71;;;18.37;38.37
40570;BME280;26270;34.428;-119.710;2023-02-10T04:06:43;101860.63;;;18.67;37.55
40570;BME280;26270;34.428;-119.710;2023-02-10T04:09:12;101868.39;;;18.19;38.44
40570;BME280;26270;34.428;-119.710;2023-02-10T04:11:40;101865.02;;;18.40;38.02
40570;BME280;26270;34.428;-119.710;2023-02-10T04:14:08;101871.86;;;18.30;38.15
40570;BME280;26270;34.428;-119.710;2023-02-10T04:16:37;101877.44;;;18.20;37.94
40570;BME280;26270;34.428;-119.710;2023-02-10T04:19:05;101876.70;;;18.33;37.90
40570;BME280;26270;34.428;-119.710;2023-02-10T04:21:33;101877.96;;;18.19;38.47
40570;BME280;26270;34.428;-119.710;2023-02-10T04:24:02;101875.06;;;18.16;38.66
40570;BME280;26270;34.428;-119.710;2023-02-10T04:26:30;101873.77;;;18.16;38.81
40570;BME280;26270;34.428;-119.710;2023-02-10T04:28:57;101877.40;;;17.99;39.21
40570;BME280;26270;34.428;-119.710;2023-02-10T04:31:25;101880.61;;;18.13;39.69
40570;BME280;26270;34.428;-119.710;2023-02-10T04:33:53;101882.34;;;17.83;40.19
40570;BME280;26270;34.428;-119.710;2023-02-10T04:36:21;101879.69;;;17.95;40.85
40570;BME280;26270;34.428;-119.710;2023-02-10T04:38:50;101875.47;;;17.70;41.29
40570;BME280;26270;34.428;-119.710;2023-02-10T04:41:19;101875.14;;;17.68;41.43
40570;BME280;26270;34.428;-119.710;2023-02-10T04:43:46;101873.68;;;17.61;41.49
40570;BME280;26270;34.428;-119.710;2023-02-10T04:46:14;101873.72;;;17.47;41.40
40570;BME280;26270;34.428;-119.710;2023-02-10T04:48:42;101876.78;;;17.33;41.99
40570;BME280;26270;34.428;-119.710;2023-02-10T04:51:11;101881.12;;;17.35;42.17
40570;BME280;26270;34.428;-119.710;2023-02-10T04:53:41;101885.35;;;17.45;42.52
40570;BME280;26270;34.428;-119.710;2023-02-10T04:56:09;101886.58;;;17.44;42.65
40570;BME280;26270;34.428;-119.710;2023-02-10T04:58:38;101887.81;;;17.24;43.00
40570;BME280;26270;34.428;-119.710;2023-02-10T05:03:19;101884.55;;;16.94;43.48
40570;BME280;26270;34.428;-119.710;2023-02-10T05:05:48;101893.89;;;16.69;43.84
40570;BME280;26270;34.428;-119.710;2023-02-10T05:08:16;101892.11;;;16.49;43.77
40570;BME280;26270;34.428;-119.710;2023-02-10T05:10:43;101887.22;;;16.49;43.75
40570;BME280;26270;34.428;-119.710;2023-02-10T05:13:11;101887.66;;;16.45;43.58
40570;BME280;26270;34.428;-119.710;2023-02-10T05:15:39;101891.49;;;16.53;43.13
40570;BME280;26270;34.428;-119.710;2023-02-10T05:18:07;101896.32;;;16.49;43.60
40570;BME280;26270;34.428;-119.710;2023-02-10T05:20:35;101899.40;;;16.62;43.54
40570;BME280;26270;34.428;-119.710;2023-02-10T05:23:03;101900.00;;;16.57;43.21
40570;BME280;26270;34.428;-119.710;2023-02-10T05:25:32;101903.52;;;16.70;42.27
40570;BME280;26270;34.428;-119.710;2023-02-10T05:27:59;101902.26;;;16.80;42.07
40570;BME280;26270;34.428;-119.710;2023-02-10T05:30:27;101901.34;;;16.60;42.33
40570;BME280;26270;34.428;-119.710;2023-02-10T05:32:56;101904.82;;;16.45;42.22
40570;BME280;26270;34.428;-119.710;2023-02-10T05:35:24;101904.00;;;16.45;42.70
40570;BME280;26270;34.428;-119.710;2023-02-10T05:37:53;101904.90;;;16.55;42.39
40570;BME280;26270;34.428;-119.710;2023-02-10T05:40:21;101904.27;;;16.45;41.99
40570;BME280;26270;34.428;-119.710;2023-02-10T05:42:49;101908.40;;;16.55;41.44
40570;BME280;26270;34.428;-119.710;2023-02-10T05:45:17;101910.35;;;16.36;41.71
40570;BME280;26270;34.428;-119.710;2023-02-10T05:47:45;101908.23;;;16.38;41.57
40570;BME280;26270;34.428;-119.710;2023-02-10T05:50:12;101910.58;;;16.48;41.83
40570;BME280;26270;34.428;-119.710;2023-02-10T05:52:41;101912.47;;;16.42;41.30
40570;BME280;26270;34.428;-119.710;2023-02-10T05:55:09;101914.01;;;16.44;41.75
40570;BME280;26270;34.428;-119.710;2023-02-10T05:57:37;101909.61;;;16.26;41.94
40570;BME280;26270;34.428;-119.710;2023-02-10T06:00:08;101904.11;;;16.28;42.25
40570;BME280;26270;34.428;-119.710;2023-02-10T06:02:37;101901.33;;;16.39;41.89
40570;BME280;26270;34.428;-119.710;2023-02-10T06:05:06;101900.40;;;16.35;41.84
40570;BME280;26270;34.428;-119.710;2023-02-10T06:07:34;101899.94;;;16.31;42.46
40570;BME280;26270;34.428;-119.710;2023-02-10T06:10:02;101900.37;;;16.44;42.13
40570;BME280;26270;34.428;-119.710;2023-02-10T06:12:31;101897.71;;;16.24;42.30
40570;BME280;26270;34.428;-119.710;2023-02-10T06:14:59;101892.56;;;15.89;42.34
40570;BME280;26270;34.428;-119.710;2023-02-10T06:17:27;101892.39;;;15.77;41.88
40570;BME280;26270;34.428;-119.710;2023-02-10T06:19:55;101898.87;;;15.65;41.82
40570;BME280;26270;34.428;-119.710;2023-02-10T06:22:23;101902.95;;;15.82;41.87
40570;BME280;26270;34.428;-119.710;2023-02-10T06:24:50;101903.88;;;15.64;41.83
40570;BME280;26270;34.428;-119.710;2023-02-10T06:27:18;101901.09;;;15.96;41.18
40570;BME280;26270;34.428;-119.710;2023-02-10T06:29:46;101898.18;;;15.76;39.95
40570;BME280;26270;34.428;-119.710;2023-02-10T06:32:14;101896.39;;;15.45;39.13
40570;BME280;26270;34.428;-119.710;2023-02-10T06:34:43;101898.88;;;15.61;38.19
40570;BME280;26270;34.428;-119.710;2023-02-10T06:37:10;101901.25;;;15.94;37.80
40570;BME280;26270;34.428;-119.710;2023-02-10T06:39:39;101905.59;;;15.91;38.99
40570;BME280;26270;34.428;-119.710;2023-02-10T06:42:06;101906.93;;;15.94;39.73
40570;BME280;26270;34.428;-119.710;2023-02-10T06:44:35;101905.21;;;15.77;40.10
40570;BME280;26270;34.428;-119.710;2023-02-10T06:47:02;101904.29;;;15.69;39.62
40570;BME280;26270;34.428;-119.710;2023-02-10T06:49:30;101909.21;;;15.79;40.32
40570;BME280;26270;34.428;-119.710;2023-02-10T06:51:58;101906.77;;;15.93;39.40
40570;BME280;26270;34.428;-119.710;2023-02-10T06:54:26;101914.36;;;15.68;39.22
40570;BME280;26270;34.428;-119.710;2023-02-10T06:56:53;101915.18;;;15.40;39.04
40570;BME280;26270;34.428;-119.710;2023-02-10T06:59:21;101913.70;;;15.69;39.68
40570;BME280;26270;34.428;-119.710;2023-02-10T07:01:49;101911.68;;;15.64;38.96
40570;BME280;26270;34.428;-119.710;2023-02-10T07:04:17;101907.70;;;15.40;38.94
40570;BME280;26270;34.428;-119.710;2023-02-10T07:06:45;101906.43;;;15.33;38.77
40570;BME280;26270;34.428;-119.710;2023-02-10T07:09:12;101910.04;;;15.54;38.56
40570;BME280;26270;34.428;-119.710;2023-02-10T07:11:40;101910.68;;;15.71;39.08
40570;BME280;26270;34.428;-119.710;2023-02-10T07:14:08;101914.02;;;15.43;39.87
40570;BME280;26270;34.428;-119.710;2023-02-10T07:16:37;101911.95;;;15.57;40.09
40570;BME280;26270;34.428;-119.710;2023-02-10T07:19:04;101911.73;;;15.39;39.50
40570;BME280;26270;34.428;-119.710;2023-02-10T07:21:33;101909.97;;;15.63;39.95
40570;BME280;26270;34.428;-119.710;2023-02-10T07:24:00;101911.84;;;15.41;40.37
40570;BME280;26270;34.428;-119.710;2023-02-10T07:26:28;101910.47;;;15.46;40.35
40570;BME280;26270;34.428;-119.710;2023-02-10T07:28:57;101903.98;;;15.54;38.62
40570;BME280;26270;34.428;-119.710;2023-02-10T07:31:25;101900.76;;;15.42;39.51
40570;BME280;26270;34.428;-119.710;2023-02-10T07:33:53;101894.42;;;15.31;37.84
40570;BME280;26270;34.428;-119.710;2023-02-10T07:36:22;101893.12;;;15.35;40.64
40570;BME280;26270;34.428;-119.710;2023-02-10T07:38:50;101891.85;;;15.48;38.95
40570;BME280;26270;34.428;-119.710;2023-02-10T07:41:18;101890.59;;;15.25;40.98
40570;BME280;26270;34.428;-119.710;2023-02-10T07:43:45;101889.09;;;15.34;39.95
40570;BME280;26270;34.428;-119.710;2023-02-10T07:46:13;101893.02;;;15.32;40.67
40570;BME280;26270;34.428;-119.710;2023-02-10T07:48:40;101889.66;;;15.37;40.28
40570;BME280;26270;34.428;-119.710;2023-02-10T07:51:08;101886.09;;;15.17;40.17
40570;BME280;26270;34.428;-119.710;2023-02-10T07:53:37;101879.60;;;14.92;40.26
40570;BME280;26270;34.428;-119.710;2023-02-10T07:56:06;101876.61;;;15.14;40.28
40570;BME280;26270;34.428;-119.710;2023-02-10T07:58:36;101880.36;;;15.13;41.21
40570;BME280;26270;34.428;-119.710;2023-02-10T08:01:07;101884.27;;;15.09;41.11
40570;BME280;26270;34.428;-119.710;2023-02-10T08:03:36;101882.34;;;14.99;41.65
40570;BME280;26270;34.428;-119.710;2023-02-10T08:06:04;101879.10;;;14.98;41.21
40570;BME280;26270;34.428;-119.710;2023-02-10T08:08:33;101878.42;;;15.10;41.08
40570;BME280;26270;34.428;-119.710;2023-02-10T08:11:04;101880.36;;;14.99;41.54
40570;BME280;26270;34.428;-119.710;2023-02-10T08:13:33;101876.49;;;14.96;40.87
40570;BME280;26270;34.428;-119.710;2023-02-10T08:16:04;101874.84;;;14.75;41.36
40570;BME280;26270;34.428;-119.710;2023-02-10T08:18:32;101869.28;;;14.84;41.67
40570;BME280;26270;34.428;-119.710;2023-02-10T08:21:00;101865.49;;;14.71;41.66
40570;BME280;26270;34.428;-119.710;2023-02-10T08:23:28;101861.60;;;14.60;41.82
40570;BME280;26270;34.428;-119.710;2023-02-10T08:25:56;101861.28;;;14.78;41.48
40570;BME280;26270;34.428;-119.710;2023-02-10T08:28:25;101858.94;;;14.78;41.24
40570;BME280;26270;34.428;-119.710;2023-02-10T08:30:53;101857.43;;;14.68;41.86
40570;BME280;26270;34.428;-119.710;2023-02-10T08:33:21;101858.64;;;14.79;42.35
40570;BME280;26270;34.428;-119.710;2023-02-10T08:35:48;101859.22;;;14.57;42.57
40570;BME280;26270;34.428;-119.710;2023-02-10T08:38:17;101858.55;;;14.56;42.16
40570;BME280;26270;34.428;-119.710;2023-02-10T08:40:45;101855.14;;;14.62;42.60
40570;BME280;26270;34.428;-119.710;2023-02-10T08:43:13;101852.73;;;14.44;42.55
40570;BME280;26270;34.428;-119.710;2023-02-10T08:45:40;101853.85;;;14.49;42.83
40570;BME280;26270;34.428;-119.710;2023-02-10T08:48:09;101854.18;;;14.45;42.82
40570;BME280;26270;34.428;-119.710;2023-02-10T08:50:37;101850.03;;;14.55;42.43
40570;BME280;26270;34.428;-119.710;2023-02-10T08:53:06;101848.52;;;14.44;42.64
40570;BME280;26270;34.428;-119.710;2023-02-10T08:55:33;101848.66;;;14.53;42.67
40570;BME280;26270;34.428;-119.710;2023-02-10T08:58:02;101847.26;;;14.46;42.76
40570;BME280;26270;34.428;-119.710;2023-02-10T09:00:31;101846.45;;;14.23;43.60
40570;BME280;26270;34.428;-119.710;2023-02-10T09:03:00;101847.41;;;14.38;43.38
40570;BME280;26270;34.428;-119.710;2023-02-10T09:05:28;101845.82;;;14.16;43.77
40570;BME280;26270;34.428;-119.710;2023-02-10T09:07:56;101843.00;;;14.48;43.64
40570;BME280;26270;34.428;-119.710;2023-02-10T09:10:23;101839.18;;;14.16;44.22
40570;BME280;26270;34.428;-119.710;2023-02-10T09:12:51;101837.25;;;14.19;43.36
40570;BME280;26270;34.428;-119.710;2023-02-10T09:15:19;101831.36;;;14.58;42.03
40570;BME280;26270;34.428;-119.710;2023-02-10T09:17:47;101822.46;;;14.65;41.53
40570;BME280;26270;34.428;-119.710;2023-02-10T09:20:16;101819.78;;;14.71;41.19
40570;BME280;26270;34.428;-119.710;2023-02-10T09:22:44;101819.57;;;14.85;40.52
40570;BME280;26270;34.428;-119.710;2023-02-10T09:25:12;101820.97;;;14.76;40.74
40570;BME280;26270;34.428;-119.710;2023-02-10T09:27:40;101817.42;;;14.60;41.35
40570;BME280;26270;34.428;-119.710;2023-02-10T09:30:09;101812.05;;;14.53;41.26
40570;BME280;26270;34.428;-119.710;2023-02-10T09:32:37;101806.30;;;14.69;41.38
40570;BME280;26270;34.428;-119.710;2023-02-10T09:35:05;101804.74;;;14.43;42.07
40570;BME280;26270;34.428;-119.710;2023-02-10T09:37:33;101801.20;;;14.50;41.77
40570;BME280;26270;34.428;-119.710;2023-02-10T09:40:01;101799.84;;;14.41;41.91
40570;BME280;26270;34.428;-119.710;2023-02-10T09:42:43;101799.55;;;14.55;42.09
40570;BME280;26270;34.428;-119.710;2023-02-10T09:45:20;101796.54;;;14.42;42.46
40570;BME280;26270;34.428;-119.710;2023-02-10T09:47:51;101793.50;;;14.31;42.30
40570;BME280;26270;34.428;-119.710;2023-02-10T09:50:31;101787.46;;;14.40;42.17
40570;BME280;26270;34.428;-119.710;2023-02-10T09:53:07;101786.06;;;14.33;42.26
40570;BME280;26270;34.428;-119.710;2023-02-10T09:55:39;101785.53;;;14.35;42.54
40570;BME280;26270;34.428;-119.710;2023-02-10T09:58:16;101782.72;;;14.30;43.29
40570;BME280;26270;34.428;-119.710;2023-02-10T10:00:47;101780.28;;;14.42;43.29
40570;BME280;26270;34.428;-119.710;2023-02-10T10:03:18;101777.83;;;14.29;43.22
40570;BME280;26270;34.428;-119.710;2023-02-10T10:05:55;101773.37;;;14.31;43.08
40570;BME280;26270;34.428;-119.710;2023-02-10T10:08:29;101777.15;;;14.34;43.41
40570;BME280;26270;34.428;-119.710;2023-02-10T10:11:04;101789.19;;;14.09;44.51
40570;BME280;26270;34.428;-119.710;2023-02-10T10:13:33;101789.87;;;14.17;44.15
40570;BME280;26270;34.428;-119.710;2023-02-10T10:16:13;101785.22;;;14.11;43.45
40570;BME280;26270;34.428;-119.710;2023-02-10T10:18:53;101779.82;;;14.08;45.98
40570;BME280;26270;34.428;-119.710;2023-02-10T10:21:28;101776.61;;;14.15;46.35
40570;BME280;26270;34.428;-119.710;2023-02-10T10:24:08;101772.46;;;14.30;46.18
40570;BME280;26270;34.428;-119.710;2023-02-10T10:26:50;101766.76;;;14.44;45.43
40570;BME280;26270;34.428;-119.710;2023-02-10T10:29:26;101768.10;;;14.21;45.93
40570;BME280;26270;34.428;-119.710;2023-02-10T10:32:14;101770.79;;;14.37;45.43
40570;BME280;26270;34.428;-119.710;2023-02-10T10:34:48;101769.71;;;14.12;46.00
40570;BME280;26270;34.428;-119.710;2023-02-10T10:37:19;101766.95;;;14.27;45.99
40570;BME280;26270;34.428;-119.710;2023-02-10T10:39:50;101773.92;;;14.09;47.09
40570;BME280;26270;34.428;-119.710;2023-02-10T10:42:24;101771.82;;;14.01;47.50
40570;BME280;26270;34.428;-119.710;2023-02-10T10:44:58;101769.10;;;13.89;47.18
40570;BME280;26270;34.428;-119.710;2023-02-10T10:47:37;101764.07;;;14.21;47.46
40570;BME280;26270;34.428;-119.710;2023-02-10T10:50:10;101763.95;;;14.23;47.36
40570;BME280;26270;34.428;-119.710;2023-02-10T10:52:43;101759.80;;;14.05;47.82
40570;BME280;26270;34.428;-119.710;2023-02-10T10:55:17;101756.57;;;13.93;48.27
40570;BME280;26270;34.428;-119.710;2023-02-10T10:57:48;101752.63;;;14.12;47.63
40570;BME280;26270;34.428;-119.710;2023-02-10T11:00:20;101750.73;;;14.06;48.54
40570;BME280;26270;34.428;-119.710;2023-02-10T11:02:54;101747.63;;;13.92;48.14
40570;BME280;26270;34.428;-119.710;2023-02-10T11:05:27;101744.72;;;13.52;46.60
40570;BME280;26270;34.428;-119.710;2023-02-10T11:07:57;101743.33;;;13.50;46.25
40570;BME280;26270;34.428;-119.710;2023-02-10T11:10:28;101737.41;;;13.55;45.35
40570;BME280;26270;34.428;-119.710;2023-02-10T11:12:59;101736.87;;;13.71;46.25
40570;BME280;26270;34.428;-119.710;2023-02-10T11:15:32;101729.55;;;13.51;46.80
40570;BME280;26270;34.428;-119.710;2023-02-10T11:18:01;101729.07;;;13.66;47.41
40570;BME280;26270;34.428;-119.710;2023-02-10T11:20:34;101726.35;;;13.58;46.81
40570;BME280;26270;34.428;-119.710;2023-02-10T11:23:11;101727.72;;;13.54;47.10
40570;BME280;26270;34.428;-119.710;2023-02-10T11:25:41;101727.34;;;13.38;47.36
40570;BME280;26270;34.428;-119.710;2023-02-10T11:28:18;101726.45;;;13.32;47.25
40570;BME280;26270;34.428;-119.710;2023-02-10T11:30:53;101727.89;;;13.24;47.48
40570;BME280;26270;34.428;-119.710;2023-02-10T11:33:24;101724.26;;;13.27;47.69
40570;BME280;26270;34.428;-119.710;2023-02-10T11:35:57;101719.67;;;13.20;47.88
40570;BME280;26270;34.428;-119.710;2023-02-10T11:38:26;101716.30;;;13.18;48.08
40570;BME280;26270;34.428;-119.710;2023-02-10T11:40:56;101713.77;;;13.37;46.55
40570;BME280;26270;34.428;-119.710;2023-02-10T11:43:28;101713.85;;;13.52;45.21
40570;BME280;26270;34.428;-119.710;2023-02-10T11:45:59;101712.44;;;13.48;45.80
40570;BME280;26270;34.428;-119.710;2023-02-10T11:48:29;101711.86;;;13.49;45.41
40570;BME280;26270;34.428;-119.710;2023-02-10T11:51:12;101705.01;;;13.50;46.00
40570;BME280;26270;34.428;-119.710;2023-02-10T11:53:42;101706.10;;;13.34;45.51
40570;BME280;26270;34.428;-119.710;2023-02-10T11:56:16;101706.47;;;13.38;46.01
40570;BME280;26270;34.428;-119.710;2023-02-10T11:58:55;101704.68;;;13.24;46.23
40570;BME280;26270;34.428;-119.710;2023-02-10T12:01:47;101707.31;;;13.29;46.54
40570;BME280;26270;34.428;-119.710;2023-02-10T12:05:02;101704.34;;;13.29;46.27
40570;BME280;26270;34.428;-119.710;2023-02-10T12:07:42;101708.14;;;13.17;46.81
40570;BME280;26270;34.428;-119.710;2023-02-10T12:10:18;101714.23;;;13.32;47.78
40570;BME280;26270;34.428;-119.710;2023-02-10T12:12:54;101707.34;;;13.49;46.97
40570;BME280;26270;34.428;-119.710;2023-02-10T12:15:38;101716.16;;;13.39;47.62
40570;BME280;26270;34.428;-119.710;2023-02-10T12:18:22;101717.66;;;13.20;47.44
40570;BME280;26270;34.428;-119.710;2023-02-10T12:21:05;101716.91;;;12.98;47.09
40570;BME280;26270;34.428;-119.710;2023-02-10T12:23:53;101719.34;;;13.14;46.96
40570;BME280;26270;34.428;-119.710;2023-02-10T12:26:26;101725.40;;;13.18;47.77
40570;BME280;26270;34.428;-119.710;2023-02-10T12:29:06;101728.64;;;13.09;48.02
40570;BME280;26270;34.428;-119.710;2023-02-10T12:31:45;101725.77;;;12.98;47.94
40570;BME280;26270;34.428;-119.710;2023-02-10T12:34:30;101725.75;;;13.08;46.88
40570;BME280;26270;34.428;-119.710;2023-02-10T12:37:11;101727.81;;;12.93;46.03
40570;BME280;26270;34.428;-119.710;2023-02-10T12:39:50;101733.68;;;13.13;47.02